Time;durP1;ratioP1;P1;durP2;ratioP2;P2;SDS_P1;SDS_P2;PMS_P1;PMS_P2;Temp;Humidity;BMP_temperature;BMP_pressure;BME280_temperature;BME280_humidity;BME280_pressure;Samples;Min_cycle;Max_cycle;Signal;HPM_P1;HPM_P2
2022/04/30 00:00:32;;;;;;;30.50;16.50;;;;;;;-0.69;65.15;100731.69;1715892;81;21513;-61
2022/04/30 00:03:01;;;;;;;26.52;17.02;;;;;;;-0.71;65.23;100732.94;1721213;81;20909;-61
2022/04/30 00:05:30;;;;;;;29.70;15.80;;;;;;;-0.74;65.27;100722.64;1714929;81;21311;-61
2022/04/30 00:07:58;;;;;;;29.87;16.32;;;;;;;-0.81;65.27;100718.27;1720669;81;20934;-61
2022/04/30 00:10:25;;;;;;;31.60;18.45;;;;;;;-0.84;65.46;100723.36;1703664;83;21563;-61
2022/04/30 00:12:52;;;;;;;29.48;18.15;;;;;;;-0.84;65.55;100728.48;1712544;83;21062;-61
2022/04/30 00:15:20;;;;;;;33.67;18.70;;;;;;;-0.85;65.65;100725.45;1677516;83;21013;-61
2022/04/30 00:17:47;;;;;;;37.13;19.90;;;;;;;-0.81;65.67;100728.53;1713938;83;21088;-61
2022/04/30 00:20:14;;;;;;;23.40;14.35;;;;;;;-0.80;65.72;100725.12;1728933;81;20937;-61
2022/04/30 00:22:41;;;;;;;29.57;16.87;;;;;;;-0.79;65.80;100731.95;1707207;82;21495;-61
2022/04/30 00:25:08;;;;;;;25.48;14.78;;;;;;;-0.79;65.82;100730.67;1711809;82;20922;-62
2022/04/30 01:05:24;;;;;;;20.37;14.63;;;;;;;-1.03;66.58;100718.78;1814170;76;20916;-60
2022/04/30 01:07:52;;;;;;;20.88;14.30;;;;;;;-1.05;66.60;100711.48;1818845;77;20974;-60
2022/04/30 01:10:20;;;;;;;23.60;13.88;;;;;;;-1.06;66.63;100707.20;1824030;77;21074;-60
2022/04/30 01:12:47;;;;;;;20.52;14.65;;;;;;;-1.07;66.65;100711.87;1816482;76;23058;-60
2022/04/30 01:15:35;;;;;;;20.17;14.05;;;;;;;-1.08;66.72;100712.72;1728101;81;20898;-60
2022/04/30 01:18:03;;;;;;;21.97;13.93;;;;;;;-1.10;66.74;100705.41;1723216;82;22276;-62
2022/04/30 01:20:31;;;;;;;;;;;;;;;-1.10;66.83;100715.24;1704630;82;21454;-61
2022/04/30 01:23:05;;;;;;;21.45;14.83;;;;;;;-1.07;66.99;100712.72;1689801;82;20233;-61
2022/04/30 01:25:32;;;;;;;24.30;14.28;;;;;;;-1.06;66.89;100705.92;1733846;82;22526;-62
2022/04/30 01:28:00;;;;;;;21.10;13.85;;;;;;;-1.10;66.88;100704.98;1725810;81;20959;-62
2022/04/30 01:30:28;;;;;;;21.25;14.63;;;;;;;-1.13;66.83;100705.80;1704031;81;20980;-62
2022/04/30 01:38:26;;;;;;;28.83;15.32;;;;;;;-1.35;66.85;100706.28;1706952;81;21169;-62
2022/04/30 01:40:53;;;;;;;24.18;15.60;;;;;;;-1.39;66.91;100699.40;1709205;82;21008;-63
2022/04/30 01:43:21;;;;;;;25.43;15.08;;;;;;;-1.40;66.94;100709.19;1709323;82;21019;-62
2022/04/30 01:45:48;;;;;;;22.37;13.85;;;;;;;-1.43;67.04;100700.17;1731183;81;21698;-62
2022/04/30 01:48:15;;;;;;;25.23;14.95;;;;;;;-1.45;67.18;100695.03;1724641;82;20951;-61
2022/04/30 01:50:43;;;;;;;28.47;15.23;;;;;;;-1.49;67.27;100705.19;1676152;83;21222;-62
2022/04/30 01:53:10;;;;;;;;;;;;;;;-1.51;67.41;100704.30;1724006;81;20915;-62
2022/04/30 01:55:37;;;;;;;23.85;15.45;;;;;;;-1.47;67.62;100699.69;1721111;81;20122;-62
2022/04/30 01:58:05;;;;;;;22.62;15.43;;;;;;;-1.48;67.51;100690.29;1727184;81;20992;-61
2022/04/30 02:00:32;;;;;;;25.10;14.47;;;;;;;-1.49;67.51;100694.95;1726747;81;20934;-63
2022/04/30 02:03:08;;;;;;;23.85;14.35;;;;;;;-1.55;67.45;100697.41;1721529;82;21098;-63
2022/04/30 02:05:37;;;;;;;21.23;11.68;;;;;;;-1.60;67.49;100687.95;1712661;82;20977;-62
2022/04/30 02:08:11;;;;;;;14.80;10.10;;;;;;;-1.64;67.53;100691.28;1726239;81;20902;-62
2022/04/30 02:10:40;;;;;;;15.43;8.23;;;;;;;-1.65;67.58;100695.97;1729662;80;21510;-63
2022/04/30 02:13:09;;;;;;;22.90;9.33;;;;;;;-1.67;67.68;100698.91;1722057;82;21598;-62
2022/04/30 02:15:39;;;;;;;16.17;9.78;;;;;;;-1.70;67.67;100698.86;1742762;81;21916;-62
2022/04/30 02:18:10;;;;;;;11.85;7.15;;;;;;;-1.73;67.62;100693.69;1726302;81;20916;-62
2022/04/30 02:20:42;;;;;;;9.40;6.53;;;;;;;-1.75;67.71;100695.35;1709450;82;21497;-62
2022/04/30 02:23:10;;;;;;;9.05;5.55;;;;;;;-1.77;67.80;100691.89;1682853;83;20949;-62
2022/04/30 02:25:37;;;;;;;13.90;6.00;;;;;;;-1.75;67.78;100690.23;1685210;83;20924;-62
2022/04/30 02:28:08;;;;;;;8.43;4.75;;;;;;;-1.68;67.95;100689.52;1705173;82;21078;-62
2022/04/30 02:30:37;;;;;;;12.43;6.87;;;;;;;-1.61;67.99;100683.66;1725796;81;20946;-62
2022/04/30 02:33:12;;;;;;;8.65;6.15;;;;;;;-1.58;67.90;100676.02;1731939;81;20906;-62
2022/04/30 02:35:45;;;;;;;9.63;5.97;;;;;;;-1.56;67.91;100679.05;1707582;81;20938;-63
2022/04/30 02:38:16;;;;;;;12.85;7.22;;;;;;;-1.53;67.92;100690.63;1726771;80;20922;-62
2022/04/30 02:40:42;;;;;;;16.67;9.20;;;;;;;-1.53;67.92;100677.81;1724528;81;21497;-62
2022/04/30 02:43:26;;;;;;;18.42;12.05;;;;;;;-1.50;67.97;100676.59;1709549;82;21662;-63
2022/04/30 02:45:50;;;;;;;16.40;9.93;;;;;;;-1.50;67.89;100682.98;1724384;81;20957;-62
2022/04/30 02:48:17;;;;;;;19.85;10.23;;;;;;;-1.52;67.90;100676.97;1716831;81;20925;-62
2022/04/30 02:50:43;;;;;;;18.67;10.35;;;;;;;-1.53;67.93;100673.97;1724454;81;20952;-62
2022/04/30 02:53:10;;;;;;;17.63;10.73;;;;;;;-1.54;67.94;100665.83;1719843;81;21122;-61
2022/04/30 02:55:37;;;;;;;22.95;13.85;;;;;;;-1.56;67.99;100667.52;1694033;83;21445;-61
2022/04/30 03:00:52;;;;;;;22.67;12.55;;;;;;;-1.58;68.10;100665.78;1681437;82;21511;-61
2022/04/30 03:03:20;;;;;;;24.70;13.03;;;;;;;-1.56;68.22;100659.84;1711167;82;21047;-63
2022/04/30 03:05:50;;;;;;;22.25;12.00;;;;;;;-1.48;68.26;100669.80;1709510;81;21056;-61
2022/04/30 03:08:20;;;;;;;24.10;12.68;;;;;;;-1.47;68.12;100665.11;1690569;83;20905;-62
2022/04/30 03:10:50;;;;;;;14.47;9.38;;;;;;;-1.44;68.29;100660.03;1717268;81;20897;-62
2022/04/30 03:13:19;;;;;;;16.97;10.55;;;;;;;-1.36;68.43;100653.34;1726204;82;20874;-62
2022/04/30 03:15:50;;;;;;;16.02;9.95;;;;;;;-1.25;68.43;100656.92;1725218;81;21027;-61
2022/04/30 03:23:51;;;;;;;17.27;10.90;;;;;;;-1.08;68.39;100656.33;1721101;82;21088;-62
2022/04/30 03:26:20;;;;;;;13.00;9.40;;;;;;;-1.09;68.35;100645.22;1687952;82;20969;-62
2022/04/30 03:28:47;;;;;;;13.10;9.48;;;;;;;-1.06;68.49;100649.53;1718038;82;20973;-62
2022/04/30 03:31:16;;;;;;;23.20;11.03;;;;;;;-0.97;68.58;100647.09;1715116;81;21747;-62
2022/04/30 03:33:47;;;;;;;26.35;11.97;;;;;;;-0.76;68.67;100644.81;1721017;81;21540;-61
2022/04/30 03:36:15;;;;;;;16.85;9.15;;;;;;;-0.20;69.05;100644.22;1709069;81;20961;-61
2022/04/30 03:38:41;;;;;;;12.45;7.80;;;;;;;0.51;68.75;100640.22;1716843;81;20951;-62
2022/04/30 03:41:08;;;;;;;17.17;9.88;;;;;;;0.99;68.16;100644.44;1721202;82;21860;-62
2022/04/30 03:43:35;;;;;;;15.03;8.93;;;;;;;0.98;67.56;100642.30;1708039;82;21978;-62
2022/04/30 03:46:02;;;;;;;23.57;10.60;;;;;;;0.94;67.72;100648.69;1718891;81;20968;-62
2022/04/30 03:48:29;;;;;;;16.55;9.73;;;;;;;1.31;68.43;100653.61;1729004;80;21676;-63
2022/04/30 03:50:57;;;;;;;26.82;10.63;;;;;;;2.35;69.09;100650.52;1707110;82;20874;-62
2022/04/30 03:53:24;;;;;;;29.80;9.15;;;;;;;3.47;68.64;100647.81;1712055;82;20980;-62
2022/04/30 03:55:52;;;;;;;28.07;14.58;;;;;;;4.57;68.17;100651.52;1711068;81;21098;-62
2022/04/30 03:58:19;;;;;;;21.75;11.03;;;;;;;5.60;67.82;100644.45;1719213;81;21445;-63
2022/04/30 04:00:48;;;;;;;26.30;12.95;;;;;;;6.44;66.56;100641.16;1691440;82;20954;-61
2022/04/30 04:03:15;;;;;;;27.20;12.33;;;;;;;7.12;66.19;100636.97;1698196;82;22138;-62
2022/04/30 04:05:42;;;;;;;21.52;12.03;;;;;;;7.88;65.83;100643.27;1719629;81;21026;-62
2022/04/30 04:08:14;;;;;;;63.42;23.73;;;;;;;8.46;65.30;100634.19;1686511;82;21253;-62
2022/04/30 04:10:41;;;;;;;62.73;24.05;;;;;;;9.01;65.53;100630.17;1681379;83;20942;-63
2022/04/30 04:18:40;;;;;;;25.52;11.83;;;;;;;10.86;63.66;100623.75;1677140;83;22098;-62
2022/04/30 04:21:08;;;;;;;20.40;5.53;;;;;;;11.13;63.47;100628.95;1719770;80;21137;-62
2022/04/30 04:26:21;;;;;;;8.35;3.87;;;;;;;11.68;62.76;100626.08;1706186;81;20988;-62
2022/04/30 04:28:47;;;;;;;;;;;;;;;12.18;62.52;100613.69;1721661;81;21497;-63
2022/04/30 04:31:16;;;;;;;12.07;5.08;;;;;;;12.53;61.57;100615.37;1724703;82;20165;-62
2022/04/30 04:33:42;;;;;;;14.43;5.45;;;;;;;12.90;61.92;100615.98;1710962;81;21135;-62
2022/04/30 04:36:09;;;;;;;10.90;5.30;;;;;;;13.34;61.40;100617.63;1708222;82;21574;-62
2022/04/30 04:38:36;;;;;;;6.83;3.58;;;;;;;13.79;60.92;100607.28;1712394;81;28777;-63
2022/04/30 04:41:03;;;;;;;9.40;3.47;;;;;;;14.05;60.43;100609.52;1713652;81;20939;-63
2022/04/30 04:43:30;;;;;;;4.97;2.40;;;;;;;14.30;60.22;100610.97;1722606;81;21482;-62
2022/04/30 04:45:56;;;;;;;15.78;2.87;;;;;;;14.57;59.76;100609.27;1703655;83;21151;-63
2022/04/30 04:48:23;;;;;;;5.40;2.25;;;;;;;14.74;59.18;100601.39;1718885;81;21025;-63
2022/04/30 04:50:51;;;;;;;9.40;2.47;;;;;;;15.03;59.38;100606.46;1711936;81;21064;-62
2022/04/30 04:53:18;;;;;;;5.42;2.17;;;;;;;15.31;59.04;100595.34;1712127;81;21506;-63
2022/04/30 04:55:44;;;;;;;;;;;;;;;15.63;58.69;100599.37;1717627;82;20960;-63
2022/04/30 04:58:11;;;;;;;8.40;1.80;;;;;;;15.93;57.93;100598.63;1720906;81;21241;-62
2022/04/30 05:00:37;;;;;;;5.22;1.55;;;;;;;16.21;57.81;100601.41;1707223;82;21446;-63
2022/04/30 05:03:04;;;;;;;2.87;1.50;;;;;;;16.34;57.64;100599.78;1710009;82;20969;-64
2022/04/30 05:05:31;;;;;;;2.77;1.42;;;;;;;16.45;56.94;100600.97;1719181;81;20980;-63
2022/04/30 05:07:58;;;;;;;3.35;1.60;;;;;;;16.71;56.91;100597.64;1722236;81;20923;-64
2022/04/30 05:10:25;;;;;;;1.77;1.10;;;;;;;17.00;56.67;100592.48;1718022;81;21251;-61
2022/04/30 05:12:51;;;;;;;;;;;;;;;17.26;55.90;100598.80;1717110;82;21835;-62
2022/04/30 05:15:18;;;;;;;1.30;1.10;;;;;;;17.56;55.97;100592.55;1722873;81;20105;-63
2022/04/30 05:17:44;;;;;;;;;;;;;;;17.82;54.56;100590.97;1710132;82;21541;-63
2022/04/30 05:20:11;;;;;;;1.80;1.22;;;;;;;17.68;53.48;100595.28;1703538;83;20131;-63
2022/04/30 05:22:38;;;;;;;2.08;1.22;;;;;;;17.70;54.15;100599.17;1693091;83;21284;-63
2022/04/30 05:25:05;;;;;;;;;;;;;;;17.88;53.76;100601.98;1713275;82;20926;-64
2022/04/30 05:27:32;;;;;;;4.30;1.82;;;;;;;18.17;53.24;100598.41;1716424;82;20391;-63
2022/04/30 05:29:58;;;;;;;1.60;1.40;;;;;;;18.47;52.59;100605.65;1719809;82;20918;-63
2022/04/30 05:32:25;;;;;;;;;;;;;;;18.25;51.74;100604.05;1711527;81;20926;-62
2022/04/30 05:34:51;;;;;;;2.70;1.55;;;;;;;17.47;49.11;100609.82;1716660;81;21092;-63
2022/04/30 05:37:18;;;;;;;;;;;;;;;16.41;49.11;100608.65;1727844;81;20974;-61
2022/04/30 05:39:44;;;;;;;;;;;;;;;15.80;48.79;100614.28;1726221;81;20118;-63
2022/04/30 05:42:11;;;;;;;3.83;2.33;;;;;;;15.50;48.77;100614.95;1729748;81;20139;-63
2022/04/30 05:44:37;;;;;;;6.70;2.87;;;;;;;15.28;49.01;100617.03;1732360;82;20955;-63
2022/04/30 05:47:04;;;;;;;5.90;3.27;;;;;;;15.56;49.26;100624.31;1720166;81;21231;-63
2022/04/30 05:49:31;;;;;;;5.20;2.67;;;;;;;15.80;49.07;100627.45;1721606;81;20960;-63
2022/04/30 05:51:57;;;;;;;;;;;;;;;16.17;48.94;100627.56;1731559;82;21106;-63
2022/04/30 05:54:24;;;;;;;;;;;;;;;16.19;47.21;100631.41;1723689;81;20162;-62
2022/04/30 05:56:51;;;;;;;7.90;2.67;;;;;;;16.09;47.30;100629.30;1700894;82;20127;-63
2022/04/30 05:59:18;;;;;;;7.28;1.90;;;;;;;15.92;48.12;100637.30;1730732;82;22596;-64
2022/04/30 06:01:44;;;;;;;;;;;;;;;16.24;47.64;100635.48;1678880;83;20904;-63
2022/04/30 06:04:11;;;;;;;;;;;;;;;16.19;46.86;100632.29;1713574;81;20143;-64
2022/04/30 06:06:38;;;;;;;4.42;1.72;;;;;;;15.93;46.48;100635.50;1710911;82;20088;-64
2022/04/30 06:09:06;;;;;;;;;;;;;;;15.75;46.72;100627.69;1731707;81;20944;-65
2022/04/30 06:11:34;;;;;;;4.22;2.10;;;;;;;15.80;46.53;100636.19;1720056;81;21913;-63
2022/04/30 06:14:01;;;;;;;7.30;2.65;;;;;;;15.71;46.11;100630.55;1702054;82;21013;-63
2022/04/30 06:16:27;;;;;;;3.08;2.10;;;;;;;15.58;45.77;100620.66;1730581;81;20970;-64
2022/04/30 06:18:54;;;;;;;4.28;1.75;;;;;;;15.58;46.16;100618.51;1723380;81;20930;-62
2022/04/30 06:21:24;;;;;;;5.45;2.30;;;;;;;15.65;44.53;100611.48;1687857;83;21088;-66
2022/04/30 06:23:52;;;;;;;4.03;2.30;;;;;;;15.30;44.26;100618.66;1726134;82;21508;-64
2022/04/30 06:26:19;;;;;;;2.65;1.87;;;;;;;15.09;44.99;100614.50;1731595;81;20960;-65
2022/04/30 06:28:47;;;;;;;6.70;2.20;;;;;;;15.10;44.49;100622.80;1737442;81;21624;-64
2022/04/30 06:31:15;;;;;;;7.80;2.10;;;;;;;15.04;44.73;100621.77;1721197;82;20921;-64
2022/04/30 06:33:42;;;;;;;3.30;2.00;;;;;;;15.33;44.88;100633.43;1731441;81;20911;-65
2022/04/30 06:36:09;;;;;;;3.98;2.75;;;;;;;15.68;44.77;100636.83;1727393;81;21046;-65
2022/04/30 06:38:36;;;;;;;3.70;2.33;;;;;;;15.72;44.71;100635.75;1712606;81;20916;-64
2022/04/30 06:41:02;;;;;;;4.97;2.83;;;;;;;15.95;44.92;100633.64;1710980;81;20956;-64
2022/04/30 06:43:29;;;;;;;3.52;2.22;;;;;;;16.36;44.91;100635.77;1729982;81;20939;-64
2022/04/30 06:45:56;;;;;;;;;;;;;;;16.57;44.17;100631.88;1717870;81;21020;-63
2022/04/30 06:48:24;;;;;;;4.53;2.62;;;;;;;16.32;43.43;100628.00;1729360;82;21911;-63
2022/04/30 06:50:50;;;;;;;7.08;3.20;;;;;;;16.05;43.65;100629.58;1717763;82;20977;-63
2022/04/30 06:58:55;;;;;;;4.67;3.20;;;;;;;15.99;43.94;100629.89;1727923;81;20973;-64
2022/04/30 07:01:28;;;;;;;8.03;3.27;;;;;;;16.20;43.98;100630.02;1690210;82;21114;-63
2022/04/30 07:03:55;;;;;;;6.20;3.15;;;;;;;16.32;43.86;100630.64;1721599;81;20981;-64
2022/04/30 07:06:21;;;;;;;4.15;2.83;;;;;;;16.44;43.13;100625.60;1730652;81;20982;-64
2022/04/30 07:08:48;;;;;;;6.22;2.95;;;;;;;16.30;43.44;100632.53;1725008;82;21620;-64
2022/04/30 07:11:14;;;;;;;4.42;3.50;;;;;;;16.11;43.59;100628.76;1723361;82;20944;-64
2022/04/30 07:13:42;;;;;;;18.35;4.22;;;;;;;16.16;43.79;100624.56;1711264;81;21139;-64
2022/04/30 07:16:08;;;;;;;6.92;3.60;;;;;;;16.23;43.81;100631.16;1716425;82;21005;-63
2022/04/30 07:18:35;;;;;;;4.30;3.05;;;;;;;16.11;43.67;100621.33;1713700;82;21028;-63
2022/04/30 07:21:02;;;;;;;5.90;3.30;;;;;;;15.63;43.18;100617.80;1712860;82;21064;-62
2022/04/30 07:23:29;;;;;;;14.33;3.60;;;;;;;15.04;43.22;100625.72;1702392;82;21065;-62
2022/04/30 07:25:55;;;;;;;5.47;3.35;;;;;;;14.60;43.52;100624.42;1717402;82;21085;-61
2022/04/30 07:28:30;;;;;;;6.17;3.58;;;;;;;14.30;43.75;100625.42;1712142;82;20954;-62
2022/04/30 07:30:51;;;;;;;8.95;3.27;;;;;;;14.04;43.76;100627.98;1729929;81;20924;-63
2022/04/30 07:33:17;;;;;;;4.30;3.02;;;;;;;13.80;43.69;100624.25;1728444;82;20950;-65
2022/04/30 07:35:44;;;;;;;4.37;3.02;;;;;;;13.71;43.75;100625.15;1742110;82;20948;-62
2022/04/30 07:38:11;;;;;;;8.23;3.75;;;;;;;13.54;44.00;100617.58;1723713;82;22119;-63
2022/04/30 07:40:38;;;;;;;6.22;3.60;;;;;;;13.49;44.30;100614.77;1722294;81;20938;-64
2022/04/30 07:43:05;;;;;;;4.45;3.00;;;;;;;13.60;44.61;100615.98;1709377;82;20989;-61
2022/04/30 07:45:32;;;;;;;3.20;2.70;;;;;;;13.65;44.45;100614.47;1700836;82;21686;-63
2022/04/30 07:47:59;;;;;;;8.60;4.03;;;;;;;13.54;44.26;100601.84;1714746;82;20952;-64
2022/04/30 07:50:37;;;;;;;3.80;3.05;;;;;;;13.42;44.55;100608.97;1723827;82;21127;-64
2022/04/30 07:53:08;;;;;;;7.17;3.40;;;;;;;13.34;44.52;100609.30;1722116;82;20988;-65
2022/04/30 07:55:35;;;;;;;4.45;3.25;;;;;;;13.42;45.03;100618.14;1727250;81;20947;-62
2022/04/30 07:58:02;;;;;;;6.00;3.22;;;;;;;13.55;44.52;100616.65;1684789;83;21493;-64
2022/04/30 08:00:29;;;;;;;;;;;;;;;13.31;44.04;100605.50;1675852;83;21010;-63
2022/04/30 08:03:43;;;;;;;;;;;;;;;;;;;;;
2022/04/30 08:06:00;;;;;;;3.62;2.35;;;;;;;13.17;44.56;100606.08;1675487;83;20910;-62
2022/04/30 08:08:27;;;;;;;3.08;2.17;;;;;;;13.31;44.56;100609.91;1673903;84;21001;-63
2022/04/30 08:10:53;;;;;;;3.65;1.75;;;;;;;13.43;44.53;100597.54;1663436;84;21462;-62
2022/04/30 08:13:20;;;;;;;4.17;3.17;;;;;;;13.62;44.58;100597.09;1662588;84;21015;-61
2022/04/30 08:15:47;;;;;;;3.95;2.30;;;;;;;13.71;44.16;100594.97;1680794;84;21096;-62
2022/04/30 08:18:14;;;;;;;2.87;2.02;;;;;;;13.69;43.56;100591.09;1672135;84;20978;-63
2022/04/30 08:20:40;;;;;;;2.60;2.08;;;;;;;13.46;43.29;100579.03;1676125;84;25593;-62
2022/04/30 08:23:08;;;;;;;3.98;2.52;;;;;;;13.31;43.36;100575.80;1702284;83;20937;-62
2022/04/30 08:25:36;;;;;;;4.45;2.30;;;;;;;12.98;43.59;100586.83;1670657;84;21062;-63
2022/04/30 08:28:03;;;;;;;4.35;1.95;;;;;;;12.92;43.84;100579.23;1700881;83;21303;-62
2022/04/30 08:30:31;;;;;;;8.08;2.52;;;;;;;12.91;43.88;100567.90;1670681;84;20954;-63
2022/04/30 08:33:01;;;;;;;3.20;1.80;;;;;;;12.83;43.89;100566.06;1665723;84;21037;-62
2022/04/30 08:35:28;;;;;;;3.45;1.77;;;;;;;13.29;44.06;100569.77;1699499;83;21067;-62
2022/04/30 08:37:55;;;;;;;3.67;2.20;;;;;;;13.55;43.50;100566.80;1672110;84;20914;-62
2022/04/30 08:40:22;;;;;;;4.62;1.90;;;;;;;13.64;43.54;100569.02;1692256;84;21119;-62
2022/04/30 08:42:49;;;;;;;2.70;1.50;;;;;;;13.83;43.77;100573.39;1681264;83;21599;-62
2022/04/30 08:45:15;;;;;;;2.12;1.65;;;;;;;14.00;43.57;100579.15;1708629;82;20979;-62
2022/04/30 08:47:47;;;;;;;2.67;1.50;;;;;;;14.27;43.49;100562.52;1722327;82;21006;-62
2022/04/30 08:50:15;;;;;;;3.40;1.65;;;;;;;14.41;42.63;100571.89;1715749;82;21222;-63
2022/04/30 08:52:43;;;;;;;6.53;2.00;;;;;;;14.55;43.05;100572.08;1713244;83;21093;-63
2022/04/30 08:55:10;;;;;;;3.60;1.70;;;;;;;14.67;43.18;100571.91;1715631;82;21003;-61
2022/04/30 08:57:38;;;;;;;4.42;1.72;;;;;;;14.77;42.90;100571.00;1719424;82;20929;-63
2022/04/30 09:00:07;;;;;;;3.47;2.12;;;;;;;14.85;42.72;100571.45;1674967;83;20899;-60
2022/04/30 09:02:34;;;;;;;4.90;1.85;;;;;;;14.82;42.54;100570.30;1696902;83;21531;-62
2022/04/30 09:05:02;;;;;;;3.27;1.60;;;;;;;14.93;42.51;100575.86;1725144;81;22033;-63
2022/04/30 09:07:28;;;;;;;5.42;1.62;;;;;;;15.29;42.70;100568.29;1722158;82;21012;-62
2022/04/30 09:10:01;;;;;;;8.08;1.80;;;;;;;15.67;42.80;100571.92;1722716;81;20901;-63
2022/04/30 09:12:33;;;;;;;2.00;1.57;;;;;;;16.16;42.66;100568.36;1683645;83;21567;-62
2022/04/30 09:15:00;;;;;;;3.00;1.60;;;;;;;16.37;42.34;100567.61;1721243;82;21134;-62
2022/04/30 09:17:27;;;;;;;5.12;1.60;;;;;;;16.46;41.86;100564.43;1720834;81;21123;-62
2022/04/30 09:19:59;;;;;;;3.87;1.70;;;;;;;16.49;42.17;100562.92;1709838;82;20944;-62
2022/04/30 09:22:34;;;;;;;4.92;1.25;;;;;;;16.53;41.88;100554.77;1713697;81;20907;-62
2022/04/30 09:25:09;;;;;;;4.47;1.92;;;;;;;16.55;41.35;100554.66;1708041;81;21009;-62
2022/04/30 09:27:46;;;;;;;6.22;1.80;;;;;;;16.28;40.98;100555.34;1682315;83;20898;-62
2022/04/30 09:30:17;;;;;;;;;;;;;;;15.97;41.04;100550.14;1716281;81;21877;-62
2022/04/30 09:32:45;;;;;;;4.22;2.05;;;;;;;16.05;40.86;100554.50;1727258;81;20102;-62
2022/04/30 09:38:08;;;;;;;2.75;2.00;;;;;;;16.36;41.28;100547.48;1725002;81;20941;-62
2022/04/30 09:40:35;;;;;;;5.30;1.72;;;;;;;16.40;41.18;100547.66;1709528;82;20990;-62
2022/04/30 09:43:02;;;;;;;1.77;1.45;;;;;;;16.29;39.57;100551.76;1706369;82;21193;-63
2022/04/30 09:45:33;;;;;;;3.80;2.00;;;;;;;15.77;40.33;100544.67;1694950;82;21001;-62
2022/04/30 09:53:56;;;;;;;2.75;2.00;;;;;;;15.79;40.40;100549.36;1723967;81;20890;-62
2022/04/30 09:56:08;;;;;;;2.08;1.47;;;;;;;16.09;40.30;100552.06;1719649;81;21220;-63
2022/04/30 09:58:39;;;;;;;1.67;1.37;;;;;;;16.10;40.37;100544.53;1721089;81;21083;-63
2022/04/30 10:01:07;;;;;;;4.72;1.70;;;;;;;15.91;38.67;100541.23;1719399;81;21519;-62
2022/04/30 10:03:34;;;;;;;4.37;2.58;;;;;;;15.54;39.25;100537.52;1704594;81;20922;-62
2022/04/30 10:06:04;;;;;;;2.72;1.70;;;;;;;15.59;39.61;100539.91;1713383;81;20951;-63
2022/04/30 10:08:37;;;;;;;4.10;1.90;;;;;;;15.60;39.48;100528.44;1731138;81;21000;-63
2022/04/30 10:11:32;;;;;;;6.30;2.17;;;;;;;15.60;39.55;100528.44;1724117;81;20903;-64
2022/04/30 10:14:31;;;;;;;4.92;2.02;;;;;;;15.45;39.49;100524.87;1726416;81;20873;-61
2022/04/30 10:17:16;;;;;;;7.37;3.45;;;;;;;15.60;39.64;100527.99;1721296;81;20938;-63
2022/04/30 10:19:41;;;;;;;6.17;3.27;;;;;;;15.57;39.43;100523.34;1719558;81;20939;-65
2022/04/30 10:22:17;;;;;;;3.12;1.70;;;;;;;15.48;39.44;100518.59;1707735;82;22070;-62
2022/04/30 10:24:50;;;;;;;3.20;1.40;;;;;;;15.36;39.12;100509.13;1703685;83;21012;-66
2022/04/30 10:27:18;;;;;;;3.37;1.50;;;;;;;15.20;38.54;100514.83;1708677;82;20862;-66
2022/04/30 10:30:00;;;;;;;2.20;1.37;;;;;;;15.10;38.17;100513.64;1722211;81;21002;-64
2022/04/30 10:32:39;;;;;;;4.37;1.62;;;;;;;15.03;38.00;100506.99;1724522;82;21019;-63
2022/04/30 10:35:07;;;;;;;2.92;1.80;;;;;;;14.88;38.19;100498.99;1738746;81;21094;-62
2022/04/30 10:37:36;;;;;;;;;;;;;;;14.74;38.23;100504.97;1736297;81;20987;-66
2022/04/30 10:40:07;;;;;;;2.83;2.00;;;;;;;14.80;38.30;100501.17;1724357;81;20094;-65
2022/04/30 10:42:43;;;;;;;3.10;1.65;;;;;;;14.99;38.64;100499.27;1736585;81;20959;-64
2022/04/30 10:45:15;;;;;;;2.27;1.50;;;;;;;15.02;38.51;100500.89;1718609;81;21931;-64
2022/04/30 10:47:54;;;;;;;7.12;1.60;;;;;;;15.22;38.81;100493.24;1724486;82;21970;-64
2022/04/30 10:50:24;;;;;;;39.00;4.15;;;;;;;15.54;38.29;100481.41;1740863;81;21090;-64
2022/04/30 10:52:54;;;;;;;3.75;1.30;;;;;;;15.59;38.17;100480.69;1717272;81;21050;-65
2022/04/30 10:55:21;;;;;;;5.75;1.60;;;;;;;15.71;38.12;100474.78;1728568;81;20960;-66
2022/04/30 10:57:47;;;;;;;6.80;1.90;;;;;;;15.91;38.50;100474.08;1716776;82;21079;-63
2022/04/30 11:00:15;;;;;;;6.37;1.30;;;;;;;16.05;38.11;100472.38;1703015;83;21138;-62
2022/04/30 11:02:42;;;;;;;3.58;2.02;;;;;;;16.00;37.90;100463.04;1715105;82;21476;-62
2022/04/30 11:05:23;;;;;;;2.40;1.77;;;;;;;16.15;38.17;100470.51;1682469;83;20914;-62
2022/04/30 11:07:51;;;;;;;3.47;1.70;;;;;;;16.33;38.09;100458.42;1703462;82;21029;-62
2022/04/30 11:10:21;;;;;;;1.87;1.57;;;;;;;16.37;37.92;100471.41;1718292;82;20945;-65
2022/04/30 11:12:47;;;;;;;3.42;1.60;;;;;;;16.38;37.40;100465.19;1723520;82;21171;-64
2022/04/30 11:15:15;;;;;;;3.52;1.50;;;;;;;16.11;37.23;100466.73;1735399;82;20924;-64
2022/04/30 11:17:46;;;;;;;4.97;1.40;;;;;;;16.08;37.65;100460.81;1736041;81;20892;-64
2022/04/30 11:20:23;;;;;;;2.77;1.40;;;;;;;16.07;37.39;100457.77;1723092;81;20972;-64
2022/04/30 11:22:55;;;;;;;1.67;1.40;;;;;;;16.01;37.86;100461.61;1727963;81;20988;-64
2022/04/30 11:25:23;;;;;;;3.85;1.50;;;;;;;16.18;37.85;100464.58;1704177;82;21525;-64
2022/04/30 11:27:55;;;;;;;4.05;1.20;;;;;;;16.07;37.33;100461.73;1704087;82;21118;-64
2022/04/30 11:30:22;;;;;;;1.15;1.02;;;;;;;15.94;36.84;100458.13;1714764;83;20918;-64
2022/04/30 11:32:49;;;;;;;3.02;1.52;;;;;;;15.77;37.23;100457.31;1728832;81;21044;-63
2022/04/30 11:35:19;;;;;;;5.80;1.55;;;;;;;15.86;37.58;100458.56;1710692;81;21463;-63
2022/04/30 11:37:45;;;;;;;2.22;1.30;;;;;;;16.04;37.57;100440.84;1673819;83;21511;-63
2022/04/30 11:40:12;;;;;;;2.85;1.40;;;;;;;16.13;37.20;100441.60;1730608;81;21494;-64
2022/04/30 11:42:39;;;;;;;2.02;1.20;;;;;;;16.17;37.35;100443.13;1723894;82;24030;-61
2022/04/30 11:45:07;;;;;;;6.95;1.40;;;;;;;16.30;37.20;100440.16;1723626;82;20913;-62
2022/04/30 11:47:35;;;;;;;2.98;1.20;;;;;;;16.58;37.42;100434.99;1705935;82;21566;-62
2022/04/30 11:50:05;;;;;;;5.15;1.50;;;;;;;16.64;36.49;100422.78;1721222;82;21086;-63
2022/04/30 11:52:32;;;;;;;4.85;1.32;;;;;;;16.39;36.16;100422.10;1721932;81;20906;-64
2022/04/30 11:55:02;;;;;;;;;;;;;;;16.24;36.27;100424.69;1725989;82;20909;-63
2022/04/30 11:57:29;;;;;;;3.52;1.45;;;;;;;16.16;35.95;100426.96;1737202;81;20538;-62
2022/04/30 11:59:56;;;;;;;2.60;1.62;;;;;;;16.12;36.15;100424.11;1720890;81;21563;-63
2022/04/30 12:02:23;;;;;;;6.22;2.30;;;;;;;16.20;36.46;100417.92;1729551;82;21108;-63
2022/04/30 12:04:50;;;;;;;4.95;1.87;;;;;;;16.56;36.60;100414.02;1728304;81;20909;-63
2022/04/30 12:07:17;;;;;;;;;;;;;;;16.91;36.63;100413.64;1726393;82;21053;-64
2022/04/30 12:09:50;;;;;;;4.85;2.05;;;;;;;17.16;36.31;100408.50;1724822;81;20116;-65
2022/04/30 12:12:22;;;;;;;2.62;1.10;;;;;;;17.14;36.44;100403.82;1723498;81;20961;-65
2022/04/30 12:14:54;;;;;;;4.72;1.95;;;;;;;17.15;36.39;100398.91;1685831;83;21301;-65
2022/04/30 12:17:32;;;;;;;6.85;2.90;;;;;;;17.33;36.75;100396.02;1716747;81;20930;-66
2022/04/30 12:26:05;;;;;;;27.75;14.13;;;;;;;17.39;35.27;100383.74;1721526;81;20994;-64
2022/04/30 12:28:47;;;;;;;6.50;3.00;;;;;;;17.00;35.41;100379.63;1706290;82;21221;-63
2022/04/30 12:31:14;;;;;;;7.55;2.83;;;;;;;16.76;35.69;100378.05;1715098;82;21374;-64
2022/04/30 12:33:48;;;;;;;4.95;1.45;;;;;;;16.76;35.93;100379.37;1729087;81;20945;-64
2022/04/30 12:36:17;;;;;;;4.28;1.50;;;;;;;16.89;35.80;100377.30;1679112;82;20918;-64
2022/04/30 12:38:55;;;;;;;2.55;1.50;;;;;;;16.88;35.64;100366.36;1683103;82;21824;-65
2022/04/30 12:41:23;;;;;;;2.08;1.17;;;;;;;16.95;35.62;100371.16;1700871;82;21217;-64
2022/04/30 12:43:51;;;;;;;2.83;1.20;;;;;;;16.93;35.07;100365.13;1729311;82;21531;-64
2022/04/30 12:46:22;;;;;;;6.58;1.90;;;;;;;16.52;35.06;100359.77;1709072;81;20936;-64
2022/04/30 12:48:50;;;;;;;5.83;2.05;;;;;;;16.36;35.24;100364.31;1712907;81;21022;-65
2022/04/30 12:51:19;;;;;;;6.95;1.67;;;;;;;16.32;35.64;100358.36;1722444;82;20936;-64
2022/04/30 12:53:45;;;;;;;5.20;1.40;;;;;;;16.33;35.62;100360.91;1714497;81;21042;-64